Time,TemperatureF,DewpointF,PressureIn,WindDirection,WindDirectionDegrees,WindSpeedMPH,WindSpeedGustMPH,Humidity,HourlyPrecipIn,Conditions,Clouds,dailyrainin,SoftwareType,DateUTC
2013-03-17 00:00:00,25.5,-1.0,29.87,NW,307,0.0,0.0,31,0.00,CLR,,0.00,WeatherDisplay:10.37,2013-03-17 04:00:00,
2013-03-17 00:01:00,25.5,-1.0,29.87,NW,307,0.0,0.0,31,0.00,CLR,,0.00,WeatherDisplay:10.37,2013-03-17 04:01:00,
2013-03-17 00:02:00,25.5,-1.0,29.87,NW,307,0.0,0.0,31,0.00,CLR,,0.00,WeatherDisplay:10.37,2013-03-17 04:02:00,
2013-03-17 00:07:00,25.3,-1.1,29.87,NW,307,0.0,0.0,31,0.00,CLR,,0.00,WeatherDisplay:10.37,2013-03-17 04:07:00,
2013-03-17 00:12:00,25.2,-1.3,29.87,NW,307,0.0,0.0,31,0.00,CLR,,0.00,WeatherDisplay:10.37,2013-03-17 04:12:00,
2013-03-17 00:17:00,25.2,-1.3,29.87,NW,307,0.0,0.0,31,0.00,CLR,,0.00,WeatherDisplay:10.37,2013-03-17 04:17:00,
2013-03-17 00:22:00,25.0,-1.5,29.87,NW,307,0.0,0.0,31,0.00,CLR,,0.00,WeatherDisplay:10.37,2013-03-17 04:22:00,
2013-03-17 00:27:00,25.2,-1.3,29.87,NW,307,0.0,0.0,31,0.00,CLR,,0.00,WeatherDisplay:10.37,2013-03-17 04:27:00,
2013-03-17 00:32:00,25.0,-1.5,29.87,NW,307,0.0,0.0,31,0.00,CLR,,0.00,WeatherDisplay:10.37,2013-03-17 04:32:00,
2013-03-17 00:37:00,24.8,-0.9,29.87,NW,307,0.0,0.0,32,0.00,CLR,,0.00,WeatherDisplay:10.37,2013-03-17 04:37:00,
2013-03-17 00:42:00,24.6,-1.1,29.87,NW,307,0.0,0.0,32,0.00,CLR,,0.00,WeatherDisplay:10.37,2013-03-17 04:42:00,
2013-03-17 00:47:00,24.4,-1.3,29.87,NW,307,0.0,0.0,32,0.00,CLR,,0.00,WeatherDisplay:10.37,2013-03-17 04:47:00,
2013-03-17 00:52:00,24.4,-1.3,29.87,NW,307,0.0,0.0,32,0.00,CLR,,0.00,WeatherDisplay:10.37,2013-03-17 04:52:00,
2013-03-17 00:57:00,24.3,-1.4,29.87,NW,307,0.0,0.0,32,0.00,CLR,,0.00,WeatherDisplay:10.37,2013-03-17 04:57:00,
2013-03-17 01:02:00,24.1,-1.6,29.87,NW,307,0.0,0.0,32,0.00,CLR,,0.00,WeatherDisplay:10.37,2013-03-17 05:02:00,
2013-03-17 01:07:00,23.9,-1.7,29.87,NW,307,0.0,0.0,32,0.00,CLR,,0.00,WeatherDisplay:10.37,2013-03-17 05:07:00,
2013-03-17 01:12:00,23.7,-1.9,29.87,NW,307,0.0,0.0,32,0.00,CLR,,0.00,WeatherDisplay:10.37,2013-03-17 05:12:00,
2013-03-17 01:17:00,23.5,-2.1,29.87,NW,307,0.0,0.0,32,0.00,CLR,,0.00,WeatherDisplay:10.37,2013-03-17 05:17:00,
2013-03-17 01:22:00,23.5,-2.1,29.87,NW,307,0.0,0.0,32,0.00,CLR,,0.00,WeatherDisplay:10.37,2013-03-17 05:22:00,
2013-03-17 01:27:00,23.4,-2.2,29.87,NW,307,0.0,0.0,32,0.00,CLR,,0.00,WeatherDisplay:10.37,2013-03-17 05:27:00,
2013-03-17 01:32:00,23.2,-2.4,29.87,NW,307,0.0,0.0,32,0.00,CLR,,0.00,WeatherDisplay:10.37,2013-03-17 05:32:00,
2013-03-17 01:37:00,23.0,-2.5,29.87,NW,307,0.0,0.0,32,0.00,CLR,,0.00,WeatherDisplay:10.37,2013-03-17 05:37:00,
2013-03-17 01:42:00,23.0,-2.5,29.87,NW,307,0.0,0.0,32,0.00,CLR,,0.00,WeatherDisplay:10.37,2013-03-17 05:42:00,
2013-03-17 01:47:00,23.0,-2.5,29.87,NW,307,0.0,0.0,32,0.00,CLR,,0.00,WeatherDisplay:10.37,2013-03-17 05:47:00,
2013-03-17 01:52:00,22.6,-2.8,29.87,NW,307,0.0,0.0,32,0.00,CLR,,0.00,WeatherDisplay:10.37,2013-03-17 05:52:00,
2013-03-17 01:57:00,22.5,-3.0,29.87,NW,307,0.0,0.0,32,0.00,CLR,,0.00,WeatherDisplay:10.37,2013-03-17 05:57:00,
2013-03-17 02:02:00,22.3,-3.2,29.87,NW,307,0.0,0.0,32,0.00,CLR,,0.00,WeatherDisplay:10.37,2013-03-17 06:02:00,
2013-03-17 02:07:00,22.3,-3.2,29.87,NW,307,0.0,0.0,32,0.00,CLR,,0.00,WeatherDisplay:10.37,2013-03-17 06:07:00,
2013-03-17 02:12:00,22.1,-3.3,29.87,NW,307,0.0,0.0,32,0.00,CLR,,0.00,WeatherDisplay:10.37,2013-03-17 06:12:00,
2013-03-17 02:17:00,21.9,-3.5,29.87,NW,307,0.0,0.0,32,0.00,CLR,,0.00,WeatherDisplay:10.37,2013-03-17 06:17:00,
2013-03-17 02:22:00,21.9,-3.5,29.87,NW,307,0.0,0.0,32,0.00,CLR,,0.00,WeatherDisplay:10.37,2013-03-17 06:22:00,
2013-03-17 02:27:00,21.9,-3.5,29.87,NW,307,0.0,0.0,32,0.00,CLR,,0.00,WeatherDisplay:10.37,2013-03-17 06:27:00,
2013-03-17 02:32:00,21.7,-3.6,29.87,NW,307,0.0,0.0,32,0.00,CLR,,0.00,WeatherDisplay:10.37,2013-03-17 06:32:00,
2013-03-17 02:37:00,21.6,-3.8,29.87,NW,307,0.0,0.0,32,0.00,CLR,,0.00,WeatherDisplay:10.37,2013-03-17 06:37:00,
2013-03-17 02:42:00,21.6,-3.8,29.87,NW,307,0.0,0.0,32,0.00,CLR,,0.00,WeatherDisplay:10.37,2013-03-17 06:42:00,
2013-03-17 02:47:00,21.4,-4.0,29.87,NW,307,0.0,0.0,32,0.00,CLR,,0.00,WeatherDisplay:10.37,2013-03-17 06:47:00,
2013-03-17 02:52:00,21.6,-3.8,29.87,NW,307,0.0,0.0,32,0.00,CLR,,0.00,WeatherDisplay:10.37,2013-03-17 06:52:00,
2013-03-17 02:57:00,21.6,-3.8,29.87,NW,307,0.0,0.0,32,0.00,CLR,,0.00,WeatherDisplay:10.37,2013-03-17 06:57:00,
2013-03-17 03:02:00,21.2,-4.1,29.87,NW,307,0.0,0.0,32,0.00,CLR,,0.00,WeatherDisplay:10.37,2013-03-17 07:02:00,
2013-03-17 03:07:00,21.0,-4.3,29.87,NW,307,0.0,0.0,32,0.00,CLR,,0.00,WeatherDisplay:10.37,2013-03-17 07:07:00,
2013-03-17 03:13:00,20.8,-4.4,29.87,NW,307,0.0,0.0,32,0.00,CLR,,0.00,WeatherDisplay:10.37,2013-03-17 07:13:00,
2013-03-17 03:18:00,20.7,-4.6,29.87,NW,307,0.0,0.0,32,0.00,CLR,,0.00,WeatherDisplay:10.37,2013-03-17 07:18:00,
2013-03-17 03:23:00,20.7,-4.6,29.87,NW,307,0.0,0.0,32,0.00,CLR,,0.00,WeatherDisplay:10.37,2013-03-17 07:23:00,
2013-03-17 03:28:00,20.5,-4.8,29.87,NW,307,0.0,0.0,32,0.00,CLR,,0.00,WeatherDisplay:10.37,2013-03-17 07:28:00,
2013-03-17 03:33:00,20.3,-4.9,29.87,NW,307,0.0,0.0,32,0.00,CLR,,0.00,WeatherDisplay:10.37,2013-03-17 07:33:00,
2013-03-17 03:38:00,20.3,-4.9,29.87,NW,307,0.0,0.0,32,0.00,CLR,,0.00,WeatherDisplay:10.37,2013-03-17 07:38:00,
2013-03-17 03:43:00,20.1,-5.1,29.87,NW,307,0.0,0.0,32,0.00,CLR,,0.00,WeatherDisplay:10.37,2013-03-17 07:43:00,
2013-03-17 03:48:00,20.1,-5.1,29.87,NW,307,0.0,0.0,32,0.00,CLR,,0.00,WeatherDisplay:10.37,2013-03-17 07:48:00,
2013-03-17 03:53:00,20.1,-5.1,29.90,NW,307,0.0,0.0,32,0.00,CLR,,0.00,WeatherDisplay:10.37,2013-03-17 07:53:00,
2013-03-17 03:58:00,19.9,-5.2,29.90,NW,307,0.0,0.0,32,0.00,CLR,,0.00,WeatherDisplay:10.37,2013-03-17 07:58:00,
2013-03-17 04:03:00,19.9,-5.2,29.90,NW,307,0.0,0.0,32,0.00,CLR,,0.00,WeatherDisplay:10.37,2013-03-17 08:03:00,
2013-03-17 04:08:00,20.1,-5.1,29.90,NW,307,0.0,0.0,32,0.00,CLR,,0.00,WeatherDisplay:10.37,2013-03-17 08:08:00,
2013-03-17 04:13:00,20.1,-5.1,29.90,NW,307,0.0,0.0,32,0.00,CLR,,0.00,WeatherDisplay:10.37,2013-03-17 08:13:00,
2013-03-17 04:18:00,20.1,-5.1,29.90,NW,307,0.0,0.0,32,0.00,CLR,,0.00,WeatherDisplay:10.37,2013-03-17 08:18:00,
2013-03-17 04:23:00,19.9,-5.2,29.90,NW,307,0.0,0.0,32,0.00,CLR,,0.00,WeatherDisplay:10.37,2013-03-17 08:23:00,
2013-03-17 04:28:00,19.8,-5.4,29.90,NW,307,0.0,0.0,32,0.00,CLR,,0.00,WeatherDisplay:10.37,2013-03-17 08:28:00,
2013-03-17 04:33:00,19.8,-5.4,29.90,NW,307,0.0,0.0,32,0.00,CLR,,0.00,WeatherDisplay:10.37,2013-03-17 08:33:00,
2013-03-17 04:38:00,19.6,-5.6,29.90,NW,307,0.0,0.0,32,0.00,CLR,,0.00,WeatherDisplay:10.37,2013-03-17 08:38:00,
2013-03-17 04:43:00,19.8,-5.4,29.90,NW,307,0.0,0.0,32,0.00,CLR,,0.00,WeatherDisplay:10.37,2013-03-17 08:43:00,
2013-03-17 04:48:00,19.4,-5.1,29.90,NW,307,0.0,0.0,33,0.00,CLR,,0.00,WeatherDisplay:10.37,2013-03-17 08:48:00,
2013-03-17 04:53:00,19.2,-5.2,29.90,NW,307,0.0,0.0,33,0.00,CLR,,0.00,WeatherDisplay:10.37,2013-03-17 08:53:00,
2013-03-17 04:58:00,19.0,-5.4,29.90,NW,307,0.0,0.0,33,0.00,CLR,,0.00,WeatherDisplay:10.37,2013-03-17 08:58:00,
2013-03-17 05:03:00,19.0,-5.4,29.90,NW,307,0.0,0.0,33,0.00,CLR,,0.00,WeatherDisplay:10.37,2013-03-17 09:03:00,
2013-03-17 05:08:00,18.7,-5.7,29.90,NW,307,0.0,0.0,33,0.00,CLR,,0.00,WeatherDisplay:10.37,2013-03-17 09:08:00,
2013-03-17 05:13:00,18.9,-5.6,29.90,NW,307,0.0,0.0,33,0.00,CLR,,0.00,WeatherDisplay:10.37,2013-03-17 09:13:00,
2013-03-17 05:18:00,18.9,-5.6,29.90,NW,307,0.0,0.0,33,0.00,CLR,,0.00,WeatherDisplay:10.37,2013-03-17 09:18:00,
2013-03-17 05:23:00,19.0,-5.4,29.90,NW,307,0.0,0.0,33,0.00,CLR,,0.00,WeatherDisplay:10.37,2013-03-17 09:23:00,
2013-03-17 05:28:00,19.0,-5.4,29.90,NW,307,0.0,0.0,33,0.00,CLR,,0.00,WeatherDisplay:10.37,2013-03-17 09:28:00,
2013-03-17 05:33:00,18.9,-5.6,29.90,NW,307,0.0,0.0,33,0.00,CLR,,0.00,WeatherDisplay:10.37,2013-03-17 09:33:00,
2013-03-17 05:38:00,18.5,-5.9,29.93,NW,307,0.0,0.0,33,0.00,CLR,,0.00,WeatherDisplay:10.37,2013-03-17 09:38:00,
2013-03-17 05:43:00,18.5,-5.9,29.93,NW,307,0.0,0.0,33,0.00,CLR,,0.00,WeatherDisplay:10.37,2013-03-17 09:43:00,
2013-03-17 05:48:00,18.5,-5.9,29.93,NW,307,0.0,0.0,33,0.00,CLR,,0.00,WeatherDisplay:10.37,2013-03-17 09:48:00,
2013-03-17 05:53:00,18.5,-5.9,29.93,NW,307,0.0,0.0,33,0.00,CLR,,0.00,WeatherDisplay:10.37,2013-03-17 09:53:00,
2013-03-17 05:58:00,18.3,-6.0,29.93,NW,307,0.0,0.0,33,0.00,CLR,,0.00,WeatherDisplay:10.37,2013-03-17 09:58:00,
2013-03-17 06:03:00,18.3,-6.0,29.93,NW,307,0.0,0.0,33,0.00,CLR,,0.00,WeatherDisplay:10.37,2013-03-17 10:03:00,
2013-03-17 06:08:00,18.5,-5.9,29.93,NW,307,0.0,0.0,33,0.00,CLR,,0.00,WeatherDisplay:10.37,2013-03-17 10:08:00,
2013-03-17 06:13:00,18.3,-6.0,29.93,NW,307,0.0,0.0,33,0.00,CLR,,0.00,WeatherDisplay:10.37,2013-03-17 10:13:00,
2013-03-17 06:19:00,18.5,-5.9,29.93,NW,307,0.0,0.0,33,0.00,CLR,,0.00,WeatherDisplay:10.37,2013-03-17 10:19:00,
2013-03-17 06:24:00,18.7,-4.5,29.93,NW,307,0.0,0.0,35,0.00,CLR,,0.00,WeatherDisplay:10.37,2013-03-17 10:24:00,
2013-03-17 06:29:00,18.5,-4.7,29.93,NW,307,0.0,0.0,35,0.00,CLR,,0.00,WeatherDisplay:10.37,2013-03-17 10:29:00,
2013-03-17 06:34:00,18.5,-4.7,29.93,NW,307,0.0,0.0,35,0.00,CLR,,0.00,WeatherDisplay:10.37,2013-03-17 10:34:00,
2013-03-17 06:39:00,18.5,-4.7,29.93,NW,307,0.0,0.0,35,0.00,CLR,,0.00,WeatherDisplay:10.37,2013-03-17 10:39:00,
2013-03-17 06:44:00,18.5,-4.7,29.93,NW,307,0.0,0.0,35,0.00,CLR,,0.00,WeatherDisplay:10.37,2013-03-17 10:44:00,
2013-03-17 06:49:00,18.5,-4.7,29.93,NW,307,0.0,0.0,35,0.00,CLR,,0.00,WeatherDisplay:10.37,2013-03-17 10:49:00,
2013-03-17 06:54:00,18.3,-4.8,29.93,NW,307,0.0,0.0,35,0.00,CLR,,0.00,WeatherDisplay:10.37,2013-03-17 10:54:00,
2013-03-17 06:59:00,18.0,-6.4,29.93,NW,307,0.0,0.0,33,0.00,CLR,,0.00,WeatherDisplay:10.37,2013-03-17 10:59:00,
2013-03-17 07:04:00,18.1,-5.0,29.93,NW,307,0.0,0.0,35,0.00,CLR,,0.00,WeatherDisplay:10.37,2013-03-17 11:04:00,
2013-03-17 07:09:00,18.1,-6.2,29.93,NW,307,0.0,0.0,33,0.00,CLR,,0.00,WeatherDisplay:10.37,2013-03-17 11:09:00,
2013-03-17 07:14:00,18.3,-6.0,29.93,NW,307,0.0,0.0,33,0.00,CLR,,0.00,WeatherDisplay:10.37,2013-03-17 11:14:00,
2013-03-17 07:19:00,18.5,-4.7,29.93,NW,307,0.0,0.0,35,0.00,CLR,,0.00,WeatherDisplay:10.37,2013-03-17 11:19:00,
2013-03-17 07:24:00,18.5,-5.9,29.96,NW,307,0.0,0.0,33,0.00,CLR,,0.00,WeatherDisplay:10.37,2013-03-17 11:24:00,
2013-03-17 07:29:00,19.0,-5.4,29.96,NW,307,0.0,0.0,33,0.00,CLR,,0.00,WeatherDisplay:10.37,2013-03-17 11:29:00,
2013-03-17 07:34:00,20.1,-3.2,29.96,NW,307,0.0,0.0,35,0.00,CLR,,0.00,WeatherDisplay:10.37,2013-03-17 11:34:00,
2013-03-17 07:39:00,21.6,-3.8,29.96,NW,307,0.0,0.0,32,0.00,CLR,,0.00,WeatherDisplay:10.37,2013-03-17 11:39:00,
2013-03-17 07:44:00,21.4,-4.0,29.96,NW,307,0.0,0.0,32,0.00,CLR,,0.00,WeatherDisplay:10.37,2013-03-17 11:44:00,
2013-03-17 07:49:00,21.7,-3.6,29.96,NW,307,0.0,0.0,32,0.00,CLR,,0.00,WeatherDisplay:10.37,2013-03-17 11:49:00,
2013-03-17 07:54:00,22.1,-3.3,29.99,NW,322,0.0,0.0,32,0.00,CLR,,0.00,WeatherDisplay:10.37,2013-03-17 11:54:00,
2013-03-17 07:59:00,22.6,-2.8,29.99,NNW,335,2.3,0.0,32,0.00,CLR,,0.00,WeatherDisplay:10.37,2013-03-17 11:59:00,
2013-03-17 08:04:00,23.5,-0.8,29.99,WNW,290,0.0,0.0,34,0.00,CLR,,0.00,WeatherDisplay:10.37,2013-03-17 12:04:00,
2013-03-17 08:09:00,25.2,-1.3,29.99,NNW,331,4.6,0.0,31,0.00,CLR,,0.00,WeatherDisplay:10.37,2013-03-17 12:09:00,
2013-03-17 08:14:00,26.1,-0.5,29.99,NNE,32,3.5,0.0,31,0.00,CLR,,0.00,WeatherDisplay:10.37,2013-03-17 12:14:00,
2013-03-17 08:19:00,26.1,-0.5,29.99,North,5,3.5,3.5,31,0.00,CLR,,0.00,WeatherDisplay:10.37,2013-03-17 12:19:00,
2013-03-17 08:24:00,25.9,-0.7,29.99,NW,326,8.1,8.1,31,0.00,CLR,,0.00,WeatherDisplay:10.37,2013-03-17 12:24:00,
2013-03-17 08:29:00,25.7,-0.8,29.99,WNW,292,5.8,5.8,31,0.00,CLR,,0.00,WeatherDisplay:10.37,2013-03-17 12:29:00,
2013-03-17 08:34:00,25.9,-0.7,29.99,WNW,300,3.6,3.6,31,0.00,CLR,,0.00,WeatherDisplay:10.37,2013-03-17 12:34:00,
2013-03-17 08:39:00,25.9,-0.7,30.02,NW,321,5.8,6.3,31,0.00,CLR,,0.00,WeatherDisplay:10.37,2013-03-17 12:39:00,
2013-03-17 08:44:00,26.1,-0.5,30.02,NNE,24,5.8,5.8,31,0.00,CLR,,0.00,WeatherDisplay:10.37,2013-03-17 12:44:00,
2013-03-17 08:49:00,26.2,-0.3,30.02,NW,312,5.8,5.8,31,0.00,CLR,,0.00,WeatherDisplay:10.37,2013-03-17 12:49:00,
2013-03-17 08:54:00,26.2,-0.3,30.02,NNW,336,4.6,4.6,31,0.00,CLR,,0.00,WeatherDisplay:10.37,2013-03-17 12:54:00,
2013-03-17 08:59:00,26.6,0.0,30.02,ENE,61,3.5,3.5,31,0.00,CLR,,0.00,WeatherDisplay:10.37,2013-03-17 12:59:00,
2013-03-17 09:04:00,27.3,0.6,30.02,WNW,294,8.1,8.1,31,0.00,CLR,,0.00,WeatherDisplay:10.37,2013-03-17 13:04:00,
2013-03-17 09:09:00,27.9,1.1,29.99,NNW,335,4.6,4.6,31,0.00,CLR,,0.00,WeatherDisplay:10.37,2013-03-17 13:09:00,
2013-03-17 09:14:00,29.5,1.8,29.99,NNW,344,5.8,5.8,30,0.00,CLR,,0.00,WeatherDisplay:10.37,2013-03-17 13:14:00,
2013-03-17 09:19:00,28.2,1.4,29.99,North,2,4.6,4.6,31,0.00,CLR,,0.00,WeatherDisplay:10.37,2013-03-17 13:19:00,
2013-03-17 09:24:00,30.0,2.3,29.99,WNW,288,5.8,5.8,30,0.00,CLR,,0.00,WeatherDisplay:10.37,2013-03-17 13:24:00,
2013-03-17 09:29:00,31.5,3.5,29.99,NW,317,3.5,3.5,30,0.00,CLR,,0.00,WeatherDisplay:10.37,2013-03-17 13:29:00,
2013-03-17 09:34:00,31.3,3.4,29.99,NW,310,0.0,0.0,30,0.00,CLR,,0.00,WeatherDisplay:10.37,2013-03-17 13:34:00,
2013-03-17 09:39:00,30.4,2.6,29.99,SSW,199,4.6,4.6,30,0.00,CLR,,0.00,WeatherDisplay:10.37,2013-03-17 13:39:00,
2013-03-17 09:44:00,31.1,3.2,29.99,West,273,3.5,4.5,30,0.00,CLR,,0.00,WeatherDisplay:10.37,2013-03-17 13:44:00,
2013-03-17 09:49:00,30.9,3.1,29.99,WNW,300,5.8,5.8,30,0.00,CLR,,0.00,WeatherDisplay:10.37,2013-03-17 13:49:00,
2013-03-17 09:54:00,28.9,1.3,29.99,WNW,286,8.1,8.1,30,0.00,CLR,,0.00,WeatherDisplay:10.37,2013-03-17 13:54:00,
2013-03-17 09:59:00,28.9,3.4,29.99,WSW,246,8.1,8.1,33,0.00,CLR,,0.00,WeatherDisplay:10.37,2013-03-17 13:59:00,
2013-03-17 10:04:00,30.0,2.3,29.99,NNW,346,5.8,5.8,30,0.00,CLR,,0.00,WeatherDisplay:10.37,2013-03-17 14:04:00,
2013-03-17 10:09:00,31.1,3.2,29.99,North,357,5.8,5.8,30,0.00,CLR,,0.00,WeatherDisplay:10.37,2013-03-17 14:09:00,
2013-03-17 10:14:00,31.5,3.5,29.99,WSW,254,5.8,5.8,30,0.00,CLR,,0.00,WeatherDisplay:10.37,2013-03-17 14:14:00,
2013-03-17 10:19:00,31.8,3.9,29.99,WNW,298,8.1,8.1,30,0.00,CLR,,0.00,WeatherDisplay:10.37,2013-03-17 14:19:00,
2013-03-17 10:24:00,32.9,4.8,29.99,WNW,298,5.8,5.8,30,0.00,CLR,,0.00,WeatherDisplay:10.37,2013-03-17 14:24:00,
2013-03-17 10:29:00,34.5,6.2,29.99,NW,307,5.8,5.8,30,0.00,CLR,,0.00,WeatherDisplay:10.37,2013-03-17 14:29:00,
2013-03-17 10:34:00,34.5,6.2,29.99,NW,320,9.2,9.2,30,0.00,CLR,,0.00,WeatherDisplay:10.37,2013-03-17 14:34:00,
2013-03-17 10:39:00,35.2,6.8,30.02,WSW,256,3.5,4.0,30,0.00,CLR,,0.00,WeatherDisplay:10.37,2013-03-17 14:39:00,
2013-03-17 10:44:00,34.0,5.7,30.02,North,357,8.1,8.1,30,0.00,CLR,,0.00,WeatherDisplay:10.37,2013-03-17 14:44:00,
2013-03-17 10:49:00,34.2,5.9,30.02,WNW,291,5.8,5.8,30,0.00,CLR,,0.00,WeatherDisplay:10.37,2013-03-17 14:49:00,
2013-03-17 10:54:00,32.7,4.6,30.02,WSW,242,9.2,9.2,30,0.00,CLR,,0.00,WeatherDisplay:10.37,2013-03-17 14:54:00,
2013-03-17 10:59:00,35.4,7.0,30.02,North,353,4.6,4.6,30,0.00,CLR,,0.00,WeatherDisplay:10.37,2013-03-17 14:59:00,
2013-03-17 11:04:00,38.3,8.8,30.02,North,4,5.8,5.8,29,0.00,CLR,,0.00,WeatherDisplay:10.37,2013-03-17 15:04:00,
2013-03-17 11:09:00,35.8,6.6,30.02,WNW,290,5.8,5.8,29,0.00,CLR,,0.00,WeatherDisplay:10.37,2013-03-17 15:09:00,
2013-03-17 11:14:00,34.3,6.1,30.02,NW,304,4.6,4.6,30,0.00,CLR,,0.00,WeatherDisplay:10.37,2013-03-17 15:14:00,
2013-03-17 11:19:00,33.4,5.3,30.02,North,357,9.2,9.2,30,0.00,CLR,,0.00,WeatherDisplay:10.37,2013-03-17 15:19:00,
2013-03-17 11:24:00,33.4,5.3,30.02,West,276,6.3,6.3,30,0.00,CLR,,0.00,WeatherDisplay:10.37,2013-03-17 15:24:00,
2013-03-17 11:29:00,33.8,5.6,30.02,North,357,8.1,8.1,30,0.00,CLR,,0.00,WeatherDisplay:10.37,2013-03-17 15:29:00,
2013-03-17 11:34:00,35.6,6.4,30.02,WNW,290,5.8,6.3,29,0.00,CLR,,0.00,WeatherDisplay:10.37,2013-03-17 15:34:00,
2013-03-17 11:39:00,33.6,5.4,30.02,NNW,329,3.5,3.5,30,0.00,CLR,,0.00,WeatherDisplay:10.37,2013-03-17 15:39:00,
2013-03-17 11:44:00,32.9,4.8,30.02,WNW,289,8.1,8.1,30,0.00,CLR,,0.00,WeatherDisplay:10.37,2013-03-17 15:44:00,
2013-03-17 11:49:00,33.1,5.0,30.02,North,11,12.3,12.3,30,0.00,CLR,,0.00,WeatherDisplay:10.37,2013-03-17 15:49:00,
2013-03-17 11:54:00,33.1,5.0,30.02,WNW,292,3.5,3.5,30,0.00,CLR,,0.00,WeatherDisplay:10.37,2013-03-17 15:54:00,
2013-03-17 11:59:00,33.3,5.1,30.02,North,357,5.8,5.8,30,0.00,CLR,,0.00,WeatherDisplay:10.37,2013-03-17 15:59:00,
2013-03-17 12:04:00,33.8,5.6,30.02,WNW,297,5.8,5.8,30,0.00,CLR,,0.00,WeatherDisplay:10.37,2013-03-17 16:04:00,
2013-03-17 12:09:00,32.9,4.8,30.02,North,353,8.1,8.1,30,0.00,CLR,,0.00,WeatherDisplay:10.37,2013-03-17 16:09:00,
2013-03-17 12:14:00,34.0,5.7,30.02,NW,313,5.8,5.8,30,0.00,CLR,,0.00,WeatherDisplay:10.37,2013-03-17 16:14:00,
2013-03-17 12:19:00,33.6,5.4,30.02,West,267,8.1,8.1,30,0.00,CLR,,0.00,WeatherDisplay:10.37,2013-03-17 16:19:00,
2013-03-17 12:24:00,34.2,5.9,30.02,NNW,345,5.8,5.8,30,0.00,CLR,,0.00,WeatherDisplay:10.37,2013-03-17 16:24:00,
2013-03-17 12:29:00,36.0,6.7,30.02,ENE,58,5.8,5.8,29,0.00,CLR,,0.00,WeatherDisplay:10.37,2013-03-17 16:29:00,
2013-03-17 12:34:00,36.0,6.7,30.02,NW,318,9.2,9.2,29,0.00,CLR,,0.00,WeatherDisplay:10.37,2013-03-17 16:34:00,
2013-03-17 12:39:00,36.1,6.9,30.02,North,350,9.2,9.2,29,0.00,CLR,,0.00,WeatherDisplay:10.37,2013-03-17 16:39:00,
2013-03-17 12:44:00,38.8,9.2,30.02,NNW,340,8.1,8.1,29,0.00,CLR,,0.00,WeatherDisplay:10.37,2013-03-17 16:44:00,
2013-03-17 12:49:00,37.0,7.7,30.02,North,9,11.5,11.5,29,0.00,CLR,,0.00,WeatherDisplay:10.37,2013-03-17 16:49:00,
2013-03-17 12:54:00,37.2,7.8,30.02,North,353,8.1,8.1,29,0.00,CLR,,0.00,WeatherDisplay:10.37,2013-03-17 16:54:00,
2013-03-17 12:59:00,37.0,7.7,30.02,NNW,327,10.1,10.1,29,0.00,CLR,,0.00,WeatherDisplay:10.37,2013-03-17 16:59:00,
2013-03-17 13:04:00,35.4,7.0,30.02,West,281,5.8,5.8,30,0.00,CLR,,0.00,WeatherDisplay:10.37,2013-03-17 17:04:00,
2013-03-17 13:09:00,37.4,8.0,30.02,NNW,327,10.4,10.4,29,0.00,CLR,,0.00,WeatherDisplay:10.37,2013-03-17 17:09:00,
2013-03-17 13:14:00,40.5,9.9,30.02,WNW,299,5.8,5.8,28,0.00,CLR,,0.00,WeatherDisplay:10.37,2013-03-17 17:14:00,
2013-03-17 13:19:00,36.9,7.5,30.02,NE,42,8.1,8.1,29,0.00,CLR,,0.00,WeatherDisplay:10.37,2013-03-17 17:19:00,
2013-03-17 13:24:00,37.0,7.7,30.02,NW,325,8.1,8.1,29,0.00,CLR,,0.00,WeatherDisplay:10.37,2013-03-17 17:24:00,
2013-03-17 13:29:00,37.9,8.5,30.02,NW,320,8.1,8.1,29,0.00,CLR,,0.00,WeatherDisplay:10.37,2013-03-17 17:29:00,
2013-03-17 13:34:00,38.7,9.1,30.02,NNW,330,5.8,5.8,29,0.00,CLR,,0.00,WeatherDisplay:10.37,2013-03-17 17:34:00,
2013-03-17 13:39:00,37.4,8.0,30.02,NE,38,10.4,10.4,29,0.00,CLR,,0.00,WeatherDisplay:10.37,2013-03-17 17:39:00,
2013-03-17 13:44:00,36.3,7.0,30.02,North,349,5.8,5.8,29,0.00,CLR,,0.00,WeatherDisplay:10.37,2013-03-17 17:44:00,
2013-03-17 13:49:00,35.4,7.0,30.02,NNW,339,8.1,8.1,30,0.00,CLR,,0.00,WeatherDisplay:10.37,2013-03-17 17:49:00,
2013-03-17 13:54:00,38.3,8.8,30.02,West,277,5.8,5.8,29,0.00,CLR,,0.00,WeatherDisplay:10.37,2013-03-17 17:54:00,
2013-03-17 13:59:00,37.9,8.5,30.02,North,350,8.1,8.1,29,0.00,CLR,,0.00,WeatherDisplay:10.37,2013-03-17 17:59:00,
2013-03-17 14:04:00,43.2,12.2,30.02,NNW,341,13.2,13.2,28,0.00,CLR,,0.00,WeatherDisplay:10.37,2013-03-17 18:04:00,
2013-03-17 14:09:00,39.9,9.4,30.02,WNW,286,8.1,8.1,28,0.00,CLR,,0.00,WeatherDisplay:10.37,2013-03-17 18:09:00,
2013-03-17 14:14:00,36.7,7.4,30.02,SSW,197,5.8,5.8,29,0.00,CLR,,0.00,WeatherDisplay:10.37,2013-03-17 18:14:00,
2013-03-17 14:19:00,36.3,7.0,30.02,NNW,337,5.8,5.8,29,0.00,CLR,,0.00,WeatherDisplay:10.37,2013-03-17 18:19:00,
2013-03-17 14:24:00,34.5,6.2,30.02,WNW,288,8.1,8.3,30,0.00,CLR,,0.00,WeatherDisplay:10.37,2013-03-17 18:24:00,
2013-03-17 14:29:00,34.9,6.5,30.02,NW,308,5.8,5.8,30,0.00,CLR,,0.00,WeatherDisplay:10.37,2013-03-17 18:29:00,
2013-03-17 14:34:00,34.9,6.5,30.02,North,349,8.1,8.1,30,0.00,CLR,,0.00,WeatherDisplay:10.37,2013-03-17 18:34:00,
2013-03-17 14:39:00,34.9,6.5,30.02,North,357,6.9,6.9,30,0.00,CLR,,0.00,WeatherDisplay:10.37,2013-03-17 18:39:00,
2013-03-17 14:44:00,35.4,7.0,30.02,West,275,8.1,8.1,30,0.00,CLR,,0.00,WeatherDisplay:10.37,2013-03-17 18:44:00,
2013-03-17 14:49:00,35.4,7.0,30.02,North,353,5.8,5.8,30,0.00,CLR,,0.00,WeatherDisplay:10.37,2013-03-17 18:49:00,
2013-03-17 14:54:00,35.1,6.7,30.02,NW,324,8.1,8.1,30,0.00,CLR,,0.00,WeatherDisplay:10.37,2013-03-17 18:54:00,
2013-03-17 14:59:00,35.4,7.0,30.02,NNE,16,8.1,8.1,30,0.00,CLR,,0.00,WeatherDisplay:10.37,2013-03-17 18:59:00,
2013-03-17 15:04:00,34.9,6.5,30.02,NW,306,8.1,8.1,30,0.00,CLR,,0.00,WeatherDisplay:10.37,2013-03-17 19:04:00,
2013-03-17 15:09:00,35.1,6.7,30.05,North,1,8.1,8.1,30,0.00,CLR,,0.00,WeatherDisplay:10.37,2013-03-17 19:09:00,
2013-03-17 15:14:00,35.1,6.7,30.05,NW,325,8.1,8.1,30,0.00,CLR,,0.00,WeatherDisplay:10.37,2013-03-17 19:14:00,
2013-03-17 15:19:00,35.4,7.0,30.05,WNW,292,5.8,5.8,30,0.00,CLR,,0.00,WeatherDisplay:10.37,2013-03-17 19:19:00,
2013-03-17 15:24:00,35.1,6.7,30.05,WNW,297,10.9,10.9,30,0.00,CLR,,0.00,WeatherDisplay:10.37,2013-03-17 19:24:00,
2013-03-17 15:29:00,35.4,7.0,30.05,WNW,288,5.8,5.8,30,0.00,CLR,,0.00,WeatherDisplay:10.37,2013-03-17 19:29:00,
2013-03-17 15:34:00,35.4,7.0,30.05,West,268,4.6,4.6,30,0.00,CLR,,0.00,WeatherDisplay:10.37,2013-03-17 19:34:00,
2013-03-17 15:40:00,35.6,6.4,30.05,WNW,293,4.6,4.6,29,0.00,CLR,,0.00,WeatherDisplay:10.37,2013-03-17 19:40:00,
2013-03-17 15:45:00,36.0,6.7,30.05,NW,309,5.8,5.8,29,0.00,CLR,,0.00,WeatherDisplay:10.37,2013-03-17 19:45:00,
2013-03-17 15:50:00,35.1,6.7,30.05,South,187,5.8,5.8,30,0.00,CLR,,0.00,WeatherDisplay:10.37,2013-03-17 19:50:00,
2013-03-17 15:55:00,34.3,6.1,30.05,NNW,330,5.8,5.8,30,0.00,CLR,,0.00,WeatherDisplay:10.37,2013-03-17 19:55:00,
2013-03-17 16:00:00,34.3,6.1,30.05,NNE,13,9.2,9.2,30,0.00,CLR,,0.00,WeatherDisplay:10.37,2013-03-17 20:00:00,
2013-03-17 16:05:00,35.2,6.8,30.05,WNW,289,6.3,6.3,30,0.00,CLR,,0.00,WeatherDisplay:10.37,2013-03-17 20:05:00,
2013-03-17 16:10:00,34.0,5.7,30.05,NW,326,8.1,8.1,30,0.00,CLR,,0.00,WeatherDisplay:10.37,2013-03-17 20:10:00,
2013-03-17 16:15:00,34.3,6.1,30.05,North,10,5.8,5.8,30,0.00,CLR,,0.00,WeatherDisplay:10.37,2013-03-17 20:15:00,
2013-03-17 16:20:00,36.9,7.5,30.05,NW,307,3.5,0.0,29,0.00,CLR,,0.00,WeatherDisplay:10.37,2013-03-17 20:20:00,
2013-03-17 16:25:00,35.6,6.4,30.05,WSW,258,5.8,5.8,29,0.00,CLR,,0.00,WeatherDisplay:10.37,2013-03-17 20:25:00,
2013-03-17 16:30:00,35.4,7.0,30.05,NNW,330,8.1,8.1,30,0.00,CLR,,0.00,WeatherDisplay:10.37,2013-03-17 20:30:00,
2013-03-17 16:35:00,35.2,6.8,30.05,WNW,293,8.1,8.1,30,0.00,CLR,,0.00,WeatherDisplay:10.37,2013-03-17 20:35:00,
2013-03-17 16:40:00,35.1,6.7,30.08,WSW,237,5.8,5.8,30,0.00,CLR,,0.00,WeatherDisplay:10.37,2013-03-17 20:40:00,
2013-03-17 16:45:00,34.0,5.7,30.08,West,274,6.9,6.9,30,0.00,CLR,,0.00,WeatherDisplay:10.37,2013-03-17 20:45:00,
2013-03-17 16:50:00,34.0,5.7,30.08,West,275,8.7,8.7,30,0.00,CLR,,0.00,WeatherDisplay:10.37,2013-03-17 20:50:00,
2013-03-17 16:55:00,34.5,6.2,30.08,West,275,12.7,12.7,30,0.00,CLR,,0.00,WeatherDisplay:10.37,2013-03-17 20:55:00,
2013-03-17 17:00:00,36.7,7.4,30.08,WNW,285,8.1,8.1,29,0.00,CLR,,0.00,WeatherDisplay:10.37,2013-03-17 21:00:00,
2013-03-17 17:05:00,34.2,5.9,30.08,West,270,11.5,11.5,30,0.00,CLR,,0.00,WeatherDisplay:10.37,2013-03-17 21:05:00,
2013-03-17 17:10:00,33.8,5.6,30.08,South,186,9.2,9.2,30,0.00,CLR,,0.00,WeatherDisplay:10.37,2013-03-17 21:10:00,
2013-03-17 17:15:00,36.3,7.0,30.08,WNW,291,5.8,5.8,29,0.00,CLR,,0.00,WeatherDisplay:10.37,2013-03-17 21:15:00,
2013-03-17 17:20:00,37.6,8.1,30.08,West,278,5.8,5.8,29,0.00,CLR,,0.00,WeatherDisplay:10.37,2013-03-17 21:20:00,
2013-03-17 17:25:00,41.2,10.5,30.08,NW,312,3.5,3.5,28,0.00,CLR,,0.00,WeatherDisplay:10.37,2013-03-17 21:25:00,
2013-03-17 17:30:00,42.1,11.3,30.08,North,357,3.5,3.5,28,0.00,CLR,,0.00,WeatherDisplay:10.37,2013-03-17 21:30:00,
2013-03-17 17:35:00,39.6,9.1,30.08,NW,321,9.2,9.2,28,0.00,CLR,,0.00,WeatherDisplay:10.37,2013-03-17 21:35:00,
2013-03-17 17:40:00,40.6,10.0,30.08,WNW,293,5.8,5.8,28,0.00,CLR,,0.00,WeatherDisplay:10.37,2013-03-17 21:40:00,
2013-03-17 17:45:00,38.1,8.6,30.08,NW,324,6.9,7.2,29,0.00,CLR,,0.00,WeatherDisplay:10.37,2013-03-17 21:45:00,
2013-03-17 17:50:00,36.7,7.4,30.08,North,357,8.1,8.1,29,0.00,CLR,,0.00,WeatherDisplay:10.37,2013-03-17 21:50:00,
2013-03-17 17:55:00,33.4,5.3,30.11,WSW,248,8.1,8.1,30,0.00,CLR,,0.00,WeatherDisplay:10.37,2013-03-17 21:55:00,
2013-03-17 18:00:00,32.7,4.6,30.11,WNW,295,5.8,5.8,30,0.00,CLR,,0.00,WeatherDisplay:10.37,2013-03-17 22:00:00,
2013-03-17 18:05:00,32.5,4.5,30.11,West,275,5.8,5.8,30,0.00,CLR,,0.00,WeatherDisplay:10.37,2013-03-17 22:05:00,
2013-03-17 18:10:00,32.2,4.2,30.11,NW,325,3.5,3.5,30,0.00,CLR,,0.00,WeatherDisplay:10.37,2013-03-17 22:10:00,
2013-03-17 18:15:00,31.6,3.7,30.11,NNW,348,5.8,5.8,30,0.00,CLR,,0.00,WeatherDisplay:10.37,2013-03-17 22:15:00,
2013-03-17 18:20:00,31.1,3.2,30.11,West,268,5.8,5.8,30,0.00,CLR,,0.00,WeatherDisplay:10.37,2013-03-17 22:20:00,
2013-03-17 18:25:00,30.9,3.1,30.11,NNE,28,3.5,3.5,30,0.00,CLR,,0.00,WeatherDisplay:10.37,2013-03-17 22:25:00,
2013-03-17 18:30:00,30.7,2.9,30.11,NW,324,8.1,8.1,30,0.00,CLR,,0.00,WeatherDisplay:10.37,2013-03-17 22:30:00,
2013-03-17 18:35:00,30.7,2.9,30.11,North,2,3.5,3.5,30,0.00,CLR,,0.00,WeatherDisplay:10.37,2013-03-17 22:35:00,
2013-03-17 18:40:00,30.2,2.4,30.11,WNW,290,5.8,5.8,30,0.00,CLR,,0.00,WeatherDisplay:10.37,2013-03-17 22:40:00,
2013-03-17 18:45:00,30.0,2.3,30.11,North,357,5.8,5.8,30,0.00,CLR,,0.00,WeatherDisplay:10.37,2013-03-17 22:45:00,
2013-03-17 18:50:00,29.5,1.8,30.11,North,6,2.2,0.0,30,0.00,CLR,,0.00,WeatherDisplay:10.37,2013-03-17 22:50:00,
2013-03-17 18:55:00,29.1,1.5,30.14,WNW,288,4.6,4.6,30,0.00,CLR,,0.00,WeatherDisplay:10.37,2013-03-17 22:55:00,
2013-03-17 19:00:00,28.9,1.3,30.14,NW,320,3.5,3.5,30,0.00,CLR,,0.00,WeatherDisplay:10.37,2013-03-17 23:00:00,
2013-03-17 19:05:00,29.7,2.0,30.14,WNW,295,6.9,6.9,30,0.00,CLR,,0.00,WeatherDisplay:10.37,2013-03-17 23:05:00,
2013-03-17 19:10:00,29.5,1.8,30.14,North,2,3.5,3.5,30,0.00,CLR,,0.00,WeatherDisplay:10.37,2013-03-17 23:10:00,
2013-03-17 19:15:00,29.5,1.8,30.14,North,357,3.5,3.5,30,0.00,CLR,,0.00,WeatherDisplay:10.37,2013-03-17 23:15:00,
2013-03-17 19:20:00,28.8,1.2,30.14,WNW,290,3.5,0.0,30,0.00,CLR,,0.00,WeatherDisplay:10.37,2013-03-17 23:20:00,
2013-03-17 19:25:00,28.8,1.2,30.17,NNW,327,3.5,3.5,30,0.00,CLR,,0.00,WeatherDisplay:10.37,2013-03-17 23:25:00,
2013-03-17 19:30:00,28.6,1.0,30.17,NW,313,3.5,0.0,30,0.00,CLR,,0.00,WeatherDisplay:10.37,2013-03-17 23:30:00,
2013-03-17 19:35:00,28.2,1.4,30.17,North,357,3.5,3.5,31,0.00,CLR,,0.00,WeatherDisplay:10.37,2013-03-17 23:35:00,
2013-03-17 19:40:00,28.2,1.4,30.17,NNW,345,3.5,0.0,31,0.00,CLR,,0.00,WeatherDisplay:10.37,2013-03-17 23:40:00,
2013-03-17 19:45:00,27.9,1.1,30.17,NW,307,2.3,0.0,31,0.00,CLR,,0.00,WeatherDisplay:10.37,2013-03-17 23:45:00,
2013-03-17 19:50:00,27.5,0.8,30.17,WNW,298,0.0,0.0,31,0.00,CLR,,0.00,WeatherDisplay:10.37,2013-03-17 23:50:00,
2013-03-17 19:55:00,27.5,0.8,30.17,WNW,298,0.0,0.0,31,0.00,CLR,,0.00,WeatherDisplay:10.37,2013-03-17 23:55:00,
2013-03-17 20:00:00,27.3,0.6,30.17,WNW,290,2.7,0.0,31,0.00,CLR,,0.00,WeatherDisplay:10.37,2013-03-18 00:00:00,
2013-03-17 20:05:00,27.5,0.8,30.17,North,357,3.5,0.0,31,0.00,CLR,,0.00,WeatherDisplay:10.37,2013-03-18 00:05:00,
2013-03-17 20:10:00,27.1,0.4,30.19,North,357,0.0,0.0,31,0.00,CLR,,0.00,WeatherDisplay:10.37,2013-03-18 00:10:00,
2013-03-17 20:15:00,26.8,0.1,30.19,North,357,2.2,0.0,31,0.00,CLR,,0.00,WeatherDisplay:10.37,2013-03-18 00:15:00,
2013-03-17 20:20:00,26.6,0.0,30.19,NNW,332,0.0,0.0,31,0.00,CLR,,0.00,WeatherDisplay:10.37,2013-03-18 00:20:00,
2013-03-17 20:25:00,26.8,0.1,30.19,NNW,345,2.3,0.0,31,0.00,CLR,,0.00,WeatherDisplay:10.37,2013-03-18 00:25:00,
2013-03-17 20:30:00,27.0,0.3,30.19,NNW,346,2.3,0.0,31,0.00,CLR,,0.00,WeatherDisplay:10.37,2013-03-18 00:30:00,
2013-03-17 20:35:00,26.6,0.0,30.19,NW,315,0.0,0.0,31,0.00,CLR,,0.00,WeatherDisplay:10.37,2013-03-18 00:35:00,
2013-03-17 20:40:00,26.2,-0.3,30.19,WNW,291,0.0,0.0,31,0.00,CLR,,0.00,WeatherDisplay:10.37,2013-03-18 00:40:00,
2013-03-17 20:45:00,26.2,-0.3,30.19,North,357,0.0,0.0,31,0.00,CLR,,0.00,WeatherDisplay:10.37,2013-03-18 00:45:00,
2013-03-17 20:50:00,26.8,0.1,30.19,NE,43,2.3,0.0,31,0.00,CLR,,0.00,WeatherDisplay:10.37,2013-03-18 00:50:00,
2013-03-17 20:55:00,26.4,-0.2,30.22,NW,320,3.1,0.0,31,0.00,CLR,,0.00,WeatherDisplay:10.37,2013-03-18 00:55:00,
2013-03-17 21:00:00,26.4,-0.2,30.22,North,8,3.5,0.0,31,0.00,CLR,,0.00,WeatherDisplay:10.37,2013-03-18 01:00:00,
2013-03-17 21:05:00,26.4,-0.2,30.22,WNW,296,3.5,0.0,31,0.00,CLR,,0.00,WeatherDisplay:10.37,2013-03-18 01:05:00,
2013-03-17 21:10:00,26.2,-0.3,30.22,North,353,3.5,3.5,31,0.00,CLR,,0.00,WeatherDisplay:10.37,2013-03-18 01:10:00,
2013-03-17 21:15:00,26.2,-0.3,30.22,WNW,297,2.3,0.0,31,0.00,CLR,,0.00,WeatherDisplay:10.37,2013-03-18 01:15:00,
2013-03-17 21:20:00,26.1,-0.5,30.22,NE,51,3.5,3.5,31,0.00,CLR,,0.00,WeatherDisplay:10.37,2013-03-18 01:20:00,
2013-03-17 21:25:00,26.1,-0.5,30.22,NNW,341,6.9,6.9,31,0.00,CLR,,0.00,WeatherDisplay:10.37,2013-03-18 01:25:00,
2013-03-17 21:30:00,25.9,-0.7,30.22,North,353,3.5,3.5,31,0.00,CLR,,0.00,WeatherDisplay:10.37,2013-03-18 01:30:00,
2013-03-17 21:35:00,25.7,-0.8,30.22,North,5,3.5,0.0,31,0.00,CLR,,0.00,WeatherDisplay:10.37,2013-03-18 01:35:00,
2013-03-17 21:40:00,25.7,-0.8,30.22,North,5,5.8,5.8,31,0.00,CLR,,0.00,WeatherDisplay:10.37,2013-03-18 01:40:00,
2013-03-17 21:45:00,25.9,-0.7,30.22,WNW,287,3.5,0.0,31,0.00,CLR,,0.00,WeatherDisplay:10.37,2013-03-18 01:45:00,
2013-03-17 21:50:00,25.3,-1.1,30.22,NNE,30,3.5,3.5,31,0.00,CLR,,0.00,WeatherDisplay:10.37,2013-03-18 01:50:00,
2013-03-17 21:55:00,24.8,-0.9,30.25,North,353,3.5,3.5,32,0.00,CLR,,0.00,WeatherDisplay:10.37,2013-03-18 01:55:00,
2013-03-17 22:00:00,24.6,-1.1,30.25,WNW,288,2.7,0.0,32,0.00,CLR,,0.00,WeatherDisplay:10.37,2013-03-18 02:00:00,
2013-03-17 22:05:00,24.4,-1.3,30.25,WSW,252,2.3,0.0,32,0.00,CLR,,0.00,WeatherDisplay:10.37,2013-03-18 02:05:00,
2013-03-17 22:10:00,24.3,-1.4,30.25,WNW,289,0.0,0.0,32,0.00,CLR,,0.00,WeatherDisplay:10.37,2013-03-18 02:10:00,
2013-03-17 22:15:00,24.3,-1.4,30.25,SW,223,0.0,0.0,32,0.00,CLR,,0.00,WeatherDisplay:10.37,2013-03-18 02:15:00,
2013-03-17 22:20:00,23.9,-1.7,30.25,SW,223,0.0,0.0,32,0.00,CLR,,0.00,WeatherDisplay:10.37,2013-03-18 02:20:00,
2013-03-17 22:25:00,23.9,-1.7,30.25,NNW,346,3.5,3.5,32,0.00,CLR,,0.00,WeatherDisplay:10.37,2013-03-18 02:25:00,
2013-03-17 22:30:00,23.9,-1.7,30.25,WNW,299,3.5,0.0,32,0.00,CLR,,0.00,WeatherDisplay:10.37,2013-03-18 02:30:00,
2013-03-17 22:35:00,24.3,-1.4,30.25,North,353,0.0,0.0,32,0.00,CLR,,0.00,WeatherDisplay:10.37,2013-03-18 02:35:00,
2013-03-17 22:40:00,23.9,-1.7,30.28,North,353,0.0,0.0,32,0.00,CLR,,0.00,WeatherDisplay:10.37,2013-03-18 02:40:00,
2013-03-17 22:45:00,23.5,-2.1,30.28,North,353,0.0,0.0,32,0.00,CLR,,0.00,WeatherDisplay:10.37,2013-03-18 02:45:00,
2013-03-17 22:50:00,23.5,-2.1,30.28,WNW,284,2.7,0.0,32,0.00,CLR,,0.00,WeatherDisplay:10.37,2013-03-18 02:50:00,
2013-03-17 22:55:00,23.4,-2.2,30.28,WNW,299,3.5,3.5,32,0.00,CLR,,0.00,WeatherDisplay:10.37,2013-03-18 02:55:00,
2013-03-17 23:00:00,23.5,-2.1,30.28,North,350,2.3,2.3,32,0.00,CLR,,0.00,WeatherDisplay:10.37,2013-03-18 03:00:00,
2013-03-17 23:05:00,23.5,-2.1,30.28,NE,43,2.3,0.0,32,0.00,CLR,,0.00,WeatherDisplay:10.37,2013-03-18 03:05:00,
2013-03-17 23:10:00,23.4,-2.2,30.28,WNW,301,5.4,5.4,32,0.00,CLR,,0.00,WeatherDisplay:10.37,2013-03-18 03:10:00,
2013-03-17 23:15:00,23.5,-2.1,30.28,WNW,290,3.5,3.5,32,0.00,CLR,,0.00,WeatherDisplay:10.37,2013-03-18 03:15:00,
2013-03-17 23:20:00,23.2,-2.4,30.28,NNE,14,3.5,0.0,32,0.00,CLR,,0.00,WeatherDisplay:10.37,2013-03-18 03:20:00,
2013-03-17 23:25:00,23.0,-2.5,30.28,North,349,2.3,0.0,32,0.00,CLR,,0.00,WeatherDisplay:10.37,2013-03-18 03:25:00,
2013-03-17 23:30:00,22.8,-2.7,30.28,North,5,0.0,0.0,32,0.00,CLR,,0.00,WeatherDisplay:10.37,2013-03-18 03:30:00,
2013-03-17 23:35:00,22.5,-3.0,30.28,WNW,291,2.3,2.3,32,0.00,CLR,,0.00,WeatherDisplay:10.37,2013-03-18 03:35:00,
2013-03-17 23:40:00,22.5,-3.0,30.31,NNW,346,3.5,0.0,32,0.00,CLR,,0.00,WeatherDisplay:10.37,2013-03-18 03:40:00,
2013-03-17 23:45:00,22.6,-2.8,30.31,North,10,3.5,3.5,32,0.00,CLR,,0.00,WeatherDisplay:10.37,2013-03-18 03:45:00,
2013-03-17 23:50:00,21.9,-3.5,30.31,NW,321,3.5,3.5,32,0.00,CLR,,0.00,WeatherDisplay:10.37,2013-03-18 03:50:00,
2013-03-17 23:55:00,21.9,-3.5,30.31,WNW,299,5.8,0.0,32,0.00,CLR,,0.00,WeatherDisplay:10.37,2013-03-18 03:55:00,